Time;durP1;ratioP1;P1;durP2;ratioP2;P2;SDS_P1;SDS_P2;PMS_P1;PMS_P2;Temp;Humidity;BMP_temperature;BMP_pressure;BME280_temperature;BME280_humidity;BME280_pressure;Samples;Min_cycle;Max_cycle;Signal;HPM_P1;HPM_P2
2022/12/14 00:02:10;;;;;;;9.40;5.97;;;-2.80;99.90;;;-2.33;100.00;96844.81;5007740;28;20484;-85
2022/12/14 00:04:39;;;;;;;9.77;6.30;;;-2.80;99.90;;;-2.32;100.00;96848.97;4997872;28;20466;-83
2022/12/14 00:07:08;;;;;;;11.63;6.40;;;-2.80;99.90;;;-2.31;100.00;96840.34;4996994;28;21045;-83
2022/12/14 00:09:38;;;;;;;12.50;5.93;;;-2.70;99.90;;;-2.30;100.00;96829.19;4998384;28;20473;-84
2022/12/14 00:12:10;;;;;;;10.93;6.43;;;-2.80;99.90;;;-2.28;100.00;96827.28;4996929;28;20628;-84
2022/12/14 00:14:39;;;;;;;14.70;6.30;;;-2.80;99.90;;;-2.30;100.00;96835.13;4996741;28;20576;-84
2022/12/14 00:17:09;;;;;;;9.80;5.87;;;-2.90;99.90;;;-2.30;100.00;96830.00;4997433;28;20573;-84
2022/12/14 00:19:39;;;;;;;14.60;6.17;;;-2.90;99.90;;;-2.29;100.00;96828.25;4998318;28;20544;-85
2022/12/14 00:22:10;;;;;;;11.00;6.43;;;-2.80;99.90;;;-2.29;100.00;96820.56;4998338;28;20475;-84
2022/12/14 00:24:39;;;;;;;11.23;6.53;;;-2.80;99.90;;;-2.28;100.00;96822.16;4996539;28;20473;-84
2022/12/14 00:27:09;;;;;;;12.83;6.20;;;-2.80;99.90;;;-2.26;100.00;96810.06;4998710;28;20456;-83
2022/12/14 00:29:39;;;;;;;10.03;6.80;;;-2.80;99.90;;;-2.25;100.00;96806.53;4995683;28;20548;-84
2022/12/14 00:32:08;;;;;;;12.20;6.30;;;-2.80;99.90;;;-2.26;100.00;96805.75;4999818;28;20541;-84
2022/12/14 00:34:38;;;;;;;9.27;4.93;;;-2.70;99.90;;;-2.28;100.00;96802.50;5002104;28;20545;-84
2022/12/14 00:37:07;;;;;;;12.40;6.60;;;-2.80;99.90;;;-2.25;100.00;96798.84;5003107;28;20468;-83
2022/12/14 00:39:37;;;;;;;11.53;6.90;;;-2.80;99.90;;;-2.23;100.00;96790.09;5001983;28;20505;-85
2022/12/14 00:42:08;;;;;;;11.13;6.00;;;-2.70;99.90;;;-2.25;100.00;96791.16;5002547;28;20976;-85
2022/12/14 00:44:39;;;;;;;11.43;5.70;;;-2.70;99.90;;;-2.26;100.00;96795.50;5004335;28;20536;-84
2022/12/14 00:47:08;;;;;;;8.90;5.50;;;-2.60;99.90;;;-2.32;100.00;96801.16;5002630;28;20646;-84
2022/12/14 00:49:38;;;;;;;10.17;5.83;;;-2.80;99.90;;;-2.31;100.00;96786.63;5003077;28;21246;-84
2022/12/14 00:52:08;;;;;;;8.80;5.50;;;-2.80;99.90;;;-2.30;100.00;96788.22;4996537;28;21109;-85
2022/12/14 00:54:38;;;;;;;11.80;5.30;;;-2.80;99.90;;;-2.30;100.00;96778.81;5003926;28;20474;-85
2022/12/14 00:57:09;;;;;;;11.37;6.20;;;-2.80;99.90;;;-2.31;100.00;96778.94;5000099;28;20989;-84
2022/12/14 00:59:39;;;;;;;11.97;6.00;;;-2.90;99.90;;;-2.28;100.00;96778.66;5000791;28;20472;-84
2022/12/14 01:02:10;;;;;;;14.17;5.87;;;-2.80;99.90;;;-2.27;100.00;96790.50;5000795;28;20571;-85
2022/12/14 01:04:40;;;;;;;10.33;6.07;;;-2.80;99.90;;;-2.26;100.00;96789.56;5003061;28;20563;-85
2022/12/14 01:07:10;;;;;;;7.97;6.27;;;-2.80;99.90;;;-2.28;100.00;96791.44;5000656;28;20464;-84
2022/12/14 01:09:39;;;;;;;9.07;5.70;;;-2.80;99.90;;;-2.29;100.00;96789.84;5000486;28;20466;-84
2022/12/14 01:12:10;;;;;;;15.60;6.57;;;-2.80;99.90;;;-2.29;100.00;96784.75;5001620;28;20500;-84
2022/12/14 01:14:39;;;;;;;10.23;5.70;;;-3.00;99.90;;;-2.30;100.00;96773.69;5000291;28;20551;-84
2022/12/14 01:17:10;;;;;;;9.43;5.13;;;-2.90;99.90;;;-2.26;100.00;96774.22;5000835;28;20517;-85
2022/12/14 01:19:40;;;;;;;8.53;5.37;;;-2.80;99.90;;;-2.25;100.00;96773.25;4999784;28;20509;-85
2022/12/14 01:22:10;;;;;;;11.40;5.57;;;-2.80;99.90;;;-2.28;100.00;96776.91;5004405;28;20462;-84
2022/12/14 01:24:40;;;;;;;11.70;6.10;;;-2.80;99.90;;;-2.25;100.00;96780.94;5000227;28;20480;-85
2022/12/14 01:27:10;;;;;;;11.03;5.20;;;-2.70;99.90;;;-2.25;100.00;96775.81;5003602;28;20530;-84
2022/12/14 01:29:40;;;;;;;10.13;5.23;;;-2.70;99.90;;;-2.24;100.00;96772.31;5002153;28;20550;-84
2022/12/14 01:32:09;;;;;;;10.03;6.77;;;-2.70;99.90;;;-2.26;100.00;96764.78;5000158;28;20970;-84
2022/12/14 01:34:39;;;;;;;10.17;6.10;;;-2.70;99.90;;;-2.26;100.00;96763.97;5001483;28;20473;-84
2022/12/14 01:37:08;;;;;;;10.30;6.40;;;-2.80;99.90;;;-2.24;100.00;96767.19;5000788;28;20474;-85
2022/12/14 01:39:37;;;;;;;8.33;5.07;;;-2.70;99.90;;;-2.24;100.00;96767.19;5000316;28;20471;-85
2022/12/14 01:42:13;;;;;;;11.70;5.93;;;-2.70;99.90;;;-2.22;100.00;96755.09;5000525;28;20474;-84
2022/12/14 01:44:58;;;;;;;7.37;5.20;;;-2.70;99.90;;;-2.19;100.00;96765.03;5001318;28;20574;-84
2022/12/14 01:47:37;;;;;;;9.60;6.27;;;-2.60;99.90;;;-2.20;100.00;96755.72;5000106;28;20499;-84
2022/12/14 01:50:16;;;;;;;10.07;5.60;;;-2.50;99.90;;;-2.21;100.00;96754.13;5000224;28;20559;-85
2022/12/14 01:52:49;;;;;;;13.47;6.70;;;-2.70;99.90;;;-2.22;100.00;96763.53;4999702;28;20862;-84
2022/12/14 01:55:25;;;;;;;8.83;5.63;;;-2.70;99.90;;;-2.18;100.00;96764.06;5000852;28;20519;-85
2022/12/14 01:58:03;;;;;;;9.50;6.40;;;-2.60;99.90;;;-2.18;100.00;96780.25;5001333;28;20467;-84
2022/12/14 02:00:32;;;;;;;11.23;6.80;;;-2.60;99.90;;;-2.19;100.00;96776.09;5001050;28;20456;-84
2022/12/14 02:03:10;;;;;;;10.07;6.20;;;-2.60;99.90;;;-2.19;100.00;96762.47;5000030;28;20489;-84
2022/12/14 02:05:48;;;;;;;12.33;6.07;;;-2.70;99.90;;;-2.19;100.00;96759.91;4998466;28;20527;-84
2022/12/14 02:08:21;;;;;;;9.70;5.20;;;-2.70;99.90;;;-2.18;100.00;96751.28;5000940;28;21086;-85
2022/12/14 02:10:54;;;;;;;8.40;5.17;;;-2.60;99.90;;;-2.17;100.00;96750.34;5000094;28;20532;-85
2022/12/14 02:13:29;;;;;;;9.20;5.37;;;-2.70;99.90;;;-2.19;100.00;96745.38;5000481;28;20557;-85
2022/12/14 02:15:59;;;;;;;9.50;5.63;;;-2.60;99.90;;;-2.19;100.00;96747.94;4999323;28;20493;-83
2022/12/14 02:18:31;;;;;;;10.23;5.57;;;-2.60;99.90;;;-2.16;100.00;96752.75;5002329;28;20550;-84
2022/12/14 02:21:21;;;;;;;9.50;6.20;;;-2.60;99.90;;;-2.16;100.00;96739.97;4999569;28;21577;-85
2022/12/14 02:24:34;;;;;;;8.53;5.03;;;-2.60;99.90;;;-2.13;100.00;96744.00;5002517;28;21300;-85
2022/12/14 02:27:40;;;;;;;13.27;5.80;;;-2.60;99.90;;;-2.09;100.00;96748.69;4996418;28;20835;-84
2022/12/14 02:30:16;;;;;;;9.13;4.97;;;-2.60;99.90;;;-2.06;100.00;96735.59;4997559;28;20465;-84
2022/12/14 02:33:26;;;;;;;6.60;4.50;;;-2.40;99.90;;;-2.11;100.00;96726.72;5002311;28;20494;-84
2022/12/14 02:36:03;;;;;;;7.90;4.87;;;-2.50;99.90;;;-2.16;100.00;96721.22;5001697;28;20474;-85
2022/12/14 02:38:50;;;;;;;8.87;5.20;;;-2.60;99.90;;;-2.11;100.00;96726.72;5030238;28;20984;-85
2022/12/14 02:41:37;;;;;;;8.77;4.83;;;-2.60;99.90;;;-2.15;100.00;96731.31;5002292;28;20460;-84
2022/12/14 02:44:24;;;;;;;11.97;6.23;;;-2.70;99.90;;;-2.10;100.00;96724.03;5003770;28;20458;-85
2022/12/14 02:47:06;;;;;;;8.50;5.30;;;-2.60;99.90;;;-2.10;100.00;96718.09;5001043;28;20994;-85
2022/12/14 02:49:57;;;;;;;7.10;4.50;;;-2.60;99.90;;;-2.09;100.00;96709.47;4999599;28;20464;-85
2022/12/14 02:52:41;;;;;;;7.73;5.20;;;-2.60;99.90;;;-2.04;100.00;96702.16;4998047;28;20502;-85
2022/12/14 02:55:21;;;;;;;11.20;6.70;;;-2.60;99.90;;;-2.03;100.00;96701.22;4998149;28;20461;-85
2022/12/14 02:58:00;;;;;;;10.97;5.57;;;-2.50;99.90;;;-2.06;100.00;96709.19;5001556;28;21449;-84
2022/12/14 03:00:33;;;;;;;14.53;7.13;;;-2.50;99.90;;;-2.05;100.00;96710.81;4997882;28;20586;-85
2022/12/14 03:03:06;;;;;;;9.33;5.03;;;-2.60;99.90;;;-2.02;100.00;96700.28;4998077;28;20976;-85
2022/12/14 03:05:35;;;;;;;10.90;5.83;;;-2.50;99.90;;;-2.05;100.00;96698.78;4998294;28;20473;-85
2022/12/14 03:08:10;;;;;;;7.77;4.63;;;-2.60;99.90;;;-2.01;100.00;96696.75;4998018;28;21073;-84
2022/12/14 03:10:48;;;;;;;9.80;5.60;;;-2.60;99.90;;;-1.98;100.00;96704.19;4998047;28;20980;-85
2022/12/14 03:13:27;;;;;;;8.37;5.00;;;-2.50;99.90;;;-1.96;100.00;96694.59;4998639;28;21263;-84
2022/12/14 03:16:03;;;;;;;11.17;5.40;;;-2.50;99.90;;;-1.96;100.00;96689.47;4998422;28;20497;-85
2022/12/14 03:18:41;;;;;;;10.73;4.80;;;-2.40;99.90;;;-1.98;100.00;96686.25;5000295;28;20456;-84
2022/12/14 03:21:19;;;;;;;9.70;5.90;;;-2.50;99.90;;;-1.95;100.00;96691.09;4995255;28;20547;-84
2022/12/14 03:23:51;;;;;;;9.73;5.00;;;-2.40;99.90;;;-1.94;100.00;96682.44;5001840;28;20497;-85
2022/12/14 03:26:29;;;;;;;8.80;4.93;;;-2.50;99.90;;;-1.92;100.00;96672.88;4998212;28;20549;-85
2022/12/14 03:29:08;;;;;;;11.53;6.50;;;-2.40;99.90;;;-1.93;100.00;96678.94;4998771;28;20516;-84
2022/12/14 03:31:46;;;;;;;14.60;5.23;;;-2.50;99.90;;;-1.94;100.00;96672.19;4997118;28;21211;-84
2022/12/14 03:34:26;;;;;;;8.53;4.83;;;-2.50;99.90;;;-1.93;100.00;96671.25;5001026;28;20558;-83
2022/12/14 03:37:04;;;;;;;9.33;4.70;;;-2.30;99.90;;;-1.92;100.00;96672.88;4998770;28;20574;-85
2022/12/14 03:39:36;;;;;;;8.07;4.63;;;-2.40;99.90;;;-1.91;100.00;96668.56;4998945;28;20466;-84
2022/12/14 03:42:17;;;;;;;9.10;4.93;;;-2.40;99.90;;;-1.91;100.00;96682.19;5001754;28;20475;-85
2022/12/14 03:44:56;;;;;;;10.20;4.97;;;-2.30;99.90;;;-1.91;100.00;96681.38;4997360;28;20455;-85
2022/12/14 03:47:53;;;;;;;8.30;5.27;;;-2.40;99.90;;;-1.89;100.00;96684.56;5001571;28;20458;-84
2022/12/14 03:50:31;;;;;;;9.13;4.87;;;-2.40;99.90;;;-1.87;100.00;96677.53;5003499;28;20466;-84
2022/12/14 03:53:09;;;;;;;9.30;4.97;;;-2.40;99.90;;;-1.87;100.00;96687.78;5000774;28;20508;-84
2022/12/14 03:55:52;;;;;;;7.67;4.70;;;-2.40;99.90;;;-1.87;100.00;96693.72;5002898;28;20930;-85
2022/12/14 03:58:36;;;;;;;9.93;5.43;;;-2.40;99.90;;;-1.87;100.00;96696.28;4998075;28;20463;-84
2022/12/14 04:01:14;;;;;;;7.00;4.70;;;-2.40;99.90;;;-1.86;100.00;96684.28;5000685;28;20471;-84
2022/12/14 04:03:57;;;;;;;11.30;5.70;;;-2.30;99.90;;;-1.88;100.00;96671.63;5000763;28;20477;-85
2022/12/14 04:06:41;;;;;;;13.50;6.00;;;-2.20;99.90;;;-1.89;100.00;96679.44;4997111;28;20566;-84
2022/12/14 04:09:29;;;;;;;10.40;5.20;;;-2.40;99.90;;;-1.89;100.00;96685.38;4998470;28;20542;-85
2022/12/14 04:20:47;;;;;;;8.67;5.80;;;-2.40;99.90;;;-1.80;100.00;96665.78;5001493;28;20465;-83
2022/12/14 04:26:15;;;;;;;9.60;5.63;;;-2.30;99.90;;;-1.84;100.00;96638.84;5003207;28;20550;-84
2022/12/14 04:31:54;;;;;;;8.93;4.40;;;-2.30;99.90;;;-1.82;100.00;96634.38;4977045;28;20474;-84
2022/12/14 04:34:29;;;;;;;12.43;5.20;;;-2.20;99.90;;;-1.80;100.00;96635.03;5003428;28;20546;-85
2022/12/14 04:37:02;;;;;;;57.67;23.77;;;-2.40;99.90;;;-1.79;100.00;96632.34;5003950;28;20467;-82
2022/12/14 04:39:45;;;;;;;10.73;5.67;;;-2.40;99.90;;;-1.79;100.00;96629.78;5000074;28;20547;-85
2022/12/14 04:42:19;;;;;;;11.30;5.03;;;-2.20;99.90;;;-1.77;100.00;96637.34;5002843;28;20475;-84
2022/12/14 04:44:55;;;;;;;10.77;5.70;;;-2.30;99.90;;;-1.81;100.00;96639.38;5003402;28;20831;-84
2022/12/14 04:47:45;;;;;;;11.07;6.23;;;-2.30;99.90;;;-1.76;100.00;96629.47;5002736;28;20472;-85
2022/12/14 04:50:23;;;;;;;10.00;5.83;;;-2.30;99.90;;;-1.75;100.00;96623.41;5003211;28;20466;-85
2022/12/14 04:53:00;;;;;;;7.40;4.90;;;-2.30;99.90;;;-1.76;100.00;96626.13;5000815;28;20985;-84
2022/12/14 04:55:43;;;;;;;8.30;5.40;;;-2.30;99.90;;;-1.81;100.00;96631.69;5001215;28;20546;-84
2022/12/14 04:58:24;;;;;;;7.00;4.30;;;-2.30;99.90;;;-1.79;100.00;96634.09;5002331;28;20466;-85
2022/12/14 05:01:23;;;;;;;7.80;5.13;;;-2.30;99.90;;;-1.80;100.00;96643.53;5031414;28;20638;-85
2022/12/14 05:04:08;;;;;;;10.33;5.10;;;-2.30;99.90;;;-1.77;100.00;96634.78;5027375;28;20985;-84
2022/12/14 05:06:53;;;;;;;9.87;5.67;;;-2.30;99.90;;;-1.82;100.00;96629.25;5001564;28;20459;-85
2022/12/14 05:09:29;;;;;;;9.27;5.13;;;-2.30;99.90;;;-1.77;100.00;96637.34;5003864;28;20842;-82
2022/12/14 05:12:07;;;;;;;10.60;6.00;;;-2.30;99.90;;;-1.79;100.00;96619.53;5001885;28;20482;-86
2022/12/14 05:14:44;;;;;;;9.20;4.90;;;-2.30;99.90;;;-1.74;100.00;96614.78;5000708;28;20872;-85
2022/12/14 05:17:14;;;;;;;9.13;5.23;;;-2.20;99.90;;;-1.72;100.00;96605.19;5003368;28;20501;-84
2022/12/14 05:19:46;;;;;;;9.70;6.10;;;-2.20;99.90;;;-1.70;100.00;96598.16;5001756;28;20470;-85
2022/12/14 05:22:18;;;;;;;7.87;5.37;;;-2.10;99.90;;;-1.70;100.00;96605.84;5002358;28;20480;-84
2022/12/14 05:24:47;;;;;;;17.33;9.13;;;-2.10;99.90;;;-1.69;100.00;96599.78;5002026;28;20525;-84
2022/12/14 05:27:19;;;;;;;8.07;5.43;;;-2.10;99.90;;;-1.69;100.00;96599.78;5001769;28;20481;-85
2022/12/14 05:29:48;;;;;;;12.80;4.40;;;-2.10;99.90;;;-1.71;100.00;96596.56;5003358;28;20495;-85
2022/12/14 05:32:19;;;;;;;6.77;4.80;;;-2.20;99.90;;;-1.70;100.00;96587.13;4997343;28;20479;-85
2022/12/14 05:34:48;;;;;;;8.90;5.87;;;-2.20;99.90;;;-1.71;100.00;96576.06;5001722;28;20497;-86
2022/12/14 05:37:19;;;;;;;18.50;9.80;;;-2.10;99.90;;;-1.70;100.00;96571.75;5002229;28;20646;-85
2022/12/14 05:39:49;;;;;;;11.40;4.90;;;-2.10;99.90;;;-1.69;100.00;96563.91;5000552;28;20468;-85
2022/12/14 05:42:20;;;;;;;7.30;5.13;;;-2.10;99.90;;;-1.70;100.00;96551.25;4999880;28;20541;-84
2022/12/14 05:44:50;;;;;;;11.13;5.27;;;-2.10;99.90;;;-1.71;100.00;96549.66;5001630;28;20474;-85
2022/12/14 05:47:19;;;;;;;12.80;6.70;;;-2.20;99.90;;;-1.70;100.00;96546.91;4999077;28;20874;-85
2022/12/14 05:49:48;;;;;;;7.63;4.83;;;-2.20;99.90;;;-1.68;100.00;96533.97;5003832;28;20982;-84
2022/12/14 05:52:18;;;;;;;7.53;4.70;;;-2.10;99.90;;;-1.70;100.00;96536.66;5001110;28;20473;-85
2022/12/14 05:54:48;;;;;;;8.33;5.00;;;-2.00;99.90;;;-1.73;100.00;96534.41;5001232;28;20508;-86
2022/12/14 05:57:19;;;;;;;10.87;5.80;;;-2.00;99.90;;;-1.76;100.00;96526.22;5001129;28;20517;-85
2022/12/14 05:59:48;;;;;;;10.50;5.73;;;-2.10;99.90;;;-1.74;100.00;96524.31;5002609;28;20468;-86
2022/12/14 06:02:17;;;;;;;12.00;5.90;;;-2.20;99.90;;;-1.74;100.00;96525.13;4998528;28;20475;-85
2022/12/14 06:04:46;;;;;;;10.47;5.63;;;-2.10;99.90;;;-1.72;100.00;96520.66;5001609;28;20474;-85
2022/12/14 06:07:16;;;;;;;9.67;5.70;;;-2.20;99.90;;;-1.70;100.00;96520.53;5001903;28;20468;-86
2022/12/14 06:09:50;;;;;;;9.20;5.87;;;-2.10;99.90;;;-1.71;100.00;96519.72;5001081;28;20970;-86
2022/12/14 06:12:21;;;;;;;11.50;5.63;;;-2.10;99.90;;;-1.69;100.00;96522.91;5001235;28;20529;-85
2022/12/14 06:14:50;;;;;;;11.57;5.37;;;-2.10;99.90;;;-1.70;100.00;96521.28;5001381;28;20555;-85
2022/12/14 06:17:20;;;;;;;13.27;6.53;;;-2.20;99.90;;;-1.68;100.00;96521.16;5002633;28;20465;-85
2022/12/14 06:19:50;;;;;;;9.93;5.67;;;-2.20;99.90;;;-1.72;100.00;96523.22;5002298;28;20463;-86
2022/12/14 06:22:20;;;;;;;8.47;5.00;;;-2.30;99.90;;;-1.72;100.00;96515.53;5000844;28;21053;-86
2022/12/14 06:24:50;;;;;;;11.00;5.10;;;-2.20;99.90;;;-1.72;100.00;96512.16;5000443;28;21056;-86
2022/12/14 06:27:20;;;;;;;15.83;6.17;;;-2.10;99.90;;;-1.76;100.00;96500.59;4998515;28;20471;-85
2022/12/14 06:29:50;;;;;;;7.90;5.50;;;-2.20;99.90;;;-1.74;100.00;96507.22;5001058;28;20464;-86
2022/12/14 06:32:20;;;;;;;10.67;5.70;;;-2.30;99.90;;;-1.74;100.00;96499.53;4999228;28;20585;-84
2022/12/14 06:34:50;;;;;;;9.53;5.57;;;-2.30;99.90;;;-1.72;100.00;96492.47;5001133;28;20588;-85
2022/12/14 06:37:20;;;;;;;11.00;6.60;;;-2.10;99.90;;;-1.72;100.00;96489.91;4999804;28;20561;-86
2022/12/14 06:39:50;;;;;;;12.87;5.83;;;-2.10;99.90;;;-1.75;100.00;96503.03;5000127;28;20460;-84
2022/12/14 06:42:23;;;;;;;10.33;6.30;;;-2.20;99.90;;;-1.76;100.00;96498.84;4999834;28;20475;-86
2022/12/14 06:44:52;;;;;;;12.20;6.70;;;-2.30;99.90;;;-1.74;100.00;96489.28;4999659;28;20521;-86
2022/12/14 06:47:22;;;;;;;14.37;6.27;;;-2.30;99.90;;;-1.76;100.00;96493.72;5001004;28;20487;-86
2022/12/14 06:49:52;;;;;;;12.20;6.90;;;-2.30;99.90;;;-1.76;100.00;96488.59;4999957;28;20507;-86
2022/12/14 06:52:22;;;;;;;13.13;7.00;;;-2.30;99.90;;;-1.76;100.00;96488.59;4999637;28;20467;-84
2022/12/14 06:54:55;;;;;;;13.00;7.13;;;-2.30;99.90;;;-1.74;100.00;96491.03;4998035;28;20494;-85
2022/12/14 06:57:26;;;;;;;9.30;5.43;;;-2.30;99.90;;;-1.72;100.00;96489.91;4999575;28;20471;-86
2022/12/14 06:59:54;;;;;;;10.17;7.10;;;-2.30;99.90;;;-1.70;100.00;96497.47;5000414;28;20561;-85
2022/12/14 07:02:23;;;;;;;12.07;6.60;;;-2.30;99.90;;;-1.72;100.00;96507.03;5000473;28;20494;-86
2022/12/14 07:04:54;;;;;;;12.37;6.77;;;-2.20;99.90;;;-1.76;100.00;96513.41;5000487;28;20473;-86
2022/12/14 07:07:25;;;;;;;9.70;5.70;;;-2.50;99.90;;;-1.84;100.00;96516.72;5000590;28;20562;-86
2022/12/14 07:09:55;;;;;;;11.20;6.87;;;-2.50;99.90;;;-1.92;100.00;96526.91;4999515;28;20503;-86
2022/12/14 07:12:26;;;;;;;9.90;5.83;;;-2.50;99.90;;;-1.91;100.00;96520.84;4999765;28;20547;-85
2022/12/14 07:14:55;;;;;;;11.50;6.93;;;-2.50;99.90;;;-1.87;100.00;96524.69;5000330;28;20504;-85
2022/12/14 07:17:25;;;;;;;10.70;6.07;;;-2.50;99.90;;;-1.85;100.00;96527.94;5001486;28;20524;-85
2022/12/14 07:19:54;;;;;;;8.37;4.80;;;-2.40;99.90;;;-1.86;100.00;96525.50;5000264;28;20465;-85
2022/12/14 07:22:24;;;;;;;14.53;7.67;;;-2.50;99.90;;;-1.85;100.00;96522.81;4998715;28;20533;-85
2022/12/14 07:24:52;;;;;;;14.30;7.40;;;-2.50;99.90;;;-1.81;100.00;96526.69;5000969;28;20467;-85
2022/12/14 07:27:22;;;;;;;9.83;6.60;;;-2.40;99.90;;;-1.78;100.00;96518.69;4998598;28;21051;-85
2022/12/14 07:29:53;;;;;;;11.83;6.50;;;-2.20;99.90;;;-1.74;100.00;96520.00;5000043;28;21018;-84
2022/12/14 07:32:23;;;;;;;12.33;6.20;;;-2.20;99.90;;;-1.73;100.00;96511.34;4998103;28;20502;-85
2022/12/14 07:34:52;;;;;;;11.83;6.37;;;-2.30;99.90;;;-1.71;100.00;96508.66;5001144;28;20593;-85
2022/12/14 07:37:23;;;;;;;12.30;6.37;;;-2.20;99.90;;;-1.71;100.00;96517.16;4999575;28;20478;-84
2022/12/14 07:39:53;;;;;;;9.17;6.00;;;-2.20;99.90;;;-1.70;100.00;96512.84;4997369;28;20568;-85
2022/12/14 07:42:22;;;;;;;10.50;6.50;;;-2.20;99.90;;;-1.71;100.00;96506.91;5000657;28;20462;-86
2022/12/14 07:44:53;;;;;;;10.90;6.47;;;-2.30;99.90;;;-1.72;100.00;96505.28;5000479;28;20961;-85
2022/12/14 07:47:23;;;;;;;9.70;6.30;;;-2.20;99.90;;;-1.71;100.00;96509.47;4999738;28;20472;-85
2022/12/14 07:49:52;;;;;;;8.83;6.03;;;-2.20;99.90;;;-1.71;100.00;96506.91;5001540;28;20550;-85
2022/12/14 07:52:21;;;;;;;10.20;6.17;;;-2.30;99.90;;;-1.69;100.00;96504.19;5000937;28;20503;-85
2022/12/14 07:54:52;;;;;;;10.37;5.87;;;-2.20;99.90;;;-1.68;100.00;96488.66;5000455;28;20593;-85
2022/12/14 07:57:22;;;;;;;9.13;5.77;;;-2.00;99.90;;;-1.67;100.00;96479.22;5000523;28;20457;-84
2022/12/14 07:59:54;;;;;;;9.43;6.33;;;-2.20;99.90;;;-1.66;100.00;96473.94;5002064;28;20552;-85
2022/12/14 08:02:27;;;;;;;9.67;5.93;;;-2.20;99.90;;;-1.66;100.00;96494.44;5002149;28;20549;-84
2022/12/14 08:04:57;;;;;;;10.87;5.47;;;-2.00;99.90;;;-1.64;100.00;96499.41;5000892;28;21068;-85
2022/12/14 08:07:30;;;;;;;10.50;6.60;;;-2.20;99.90;;;-1.66;100.00;96502.13;5001164;28;20471;-85
2022/12/14 08:10:00;;;;;;;9.63;5.87;;;-2.20;99.90;;;-1.68;100.00;96498.91;5002921;28;20464;-84
2022/12/14 08:12:30;;;;;;;14.63;6.87;;;-2.20;99.90;;;-1.69;100.00;96494.75;5000547;28;20508;-84
2022/12/14 08:15:02;;;;;;;10.50;6.50;;;-2.30;99.90;;;-1.73;100.00;96505.41;5002248;28;21009;-85
2022/12/14 08:17:32;;;;;;;11.70;5.97;;;-2.40;99.90;;;-1.72;100.00;96497.59;5000983;28;20474;-85
2022/12/14 08:20:02;;;;;;;25.90;6.03;;;-2.30;99.90;;;-1.68;100.00;96504.03;5002970;28;20487;-86
2022/12/14 08:22:32;;;;;;;10.60;6.60;;;-2.20;99.90;;;-1.66;100.00;96509.81;4999746;28;20516;-86
2022/12/14 08:25:02;;;;;;;13.30;5.90;;;-2.30;99.90;;;-1.64;100.00;96514.78;5002227;28;20558;-86
2022/12/14 08:27:31;;;;;;;13.80;6.87;;;-2.20;99.90;;;-1.62;100.00;96513.69;4999407;28;20466;-86
2022/12/14 08:30:03;;;;;;;10.60;6.70;;;-2.20;99.90;;;-1.60;100.00;96522.00;5001368;28;20550;-86
2022/12/14 08:32:32;;;;;;;8.53;5.47;;;-2.20;99.90;;;-1.58;100.00;96515.00;5000419;28;20520;-86
2022/12/14 08:35:02;;;;;;;12.10;6.50;;;-2.00;99.90;;;-1.61;100.00;96517.88;4999853;28;20506;-85
2022/12/14 08:37:32;;;;;;;15.03;6.00;;;-2.00;99.90;;;-1.61;100.00;96505.06;5002726;28;20524;-86
2022/12/14 08:40:02;;;;;;;10.93;6.50;;;-2.10;99.90;;;-1.57;100.00;96510.69;5002088;28;20474;-86
2022/12/14 08:42:32;;;;;;;14.83;6.10;;;-2.10;99.90;;;-1.57;100.00;96511.50;5001321;28;20463;-86
2022/12/14 08:45:02;;;;;;;11.17;6.30;;;-2.00;99.90;;;-1.58;100.00;96509.88;4999144;28;20462;-86
2022/12/14 08:47:31;;;;;;;12.03;7.10;;;-2.00;99.90;;;-1.54;100.00;96503.50;5000256;28;20470;-86
2022/12/14 08:50:01;;;;;;;9.20;6.30;;;-2.00;99.90;;;-1.54;100.00;96492.44;5001269;28;20474;-86
2022/12/14 08:52:31;;;;;;;9.57;5.93;;;-2.00;99.90;;;-1.54;100.00;96495.81;4999391;28;21392;-86
2022/12/14 08:55:01;;;;;;;13.70;7.27;;;-2.00;99.90;;;-1.52;100.00;96491.31;5001295;28;20529;-86
2022/12/14 08:57:31;;;;;;;10.80;6.07;;;-2.00;99.90;;;-1.50;100.00;96501.44;5004722;28;20458;-86
2022/12/14 09:00:02;;;;;;;10.97;6.97;;;-1.90;99.90;;;-1.51;100.00;96507.50;5005512;28;20559;-86
2022/12/14 09:02:32;;;;;;;13.00;5.70;;;-2.00;99.90;;;-1.48;100.00;96498.72;5002161;28;20534;-86
2022/12/14 09:05:01;;;;;;;10.43;6.40;;;-1.90;99.90;;;-1.47;100.00;96502.88;5003541;28;21374;-86
2022/12/14 09:07:32;;;;;;;14.43;6.10;;;-1.90;99.90;;;-1.52;100.00;96508.47;5003317;28;20953;-85
2022/12/14 09:10:03;;;;;;;14.93;7.23;;;-1.90;99.90;;;-1.53;100.00;96512.00;5001338;28;20469;-86
2022/12/14 09:12:35;;;;;;;9.50;6.10;;;-2.00;99.90;;;-1.54;100.00;96516.31;5000763;28;20467;-87
2022/12/14 09:15:09;;;;;;;12.47;6.23;;;-2.00;99.90;;;-1.53;100.00;96512.00;5001340;28;20511;-86
2022/12/14 09:17:40;;;;;;;11.40;6.23;;;-2.00;99.90;;;-1.53;100.00;96530.72;5000933;28;20568;-87
2022/12/14 09:20:11;;;;;;;12.17;6.10;;;-2.00;99.90;;;-1.56;100.00;96528.44;5001328;28;20533;-86
2022/12/14 09:22:41;;;;;;;13.77;6.83;;;-2.10;99.90;;;-1.53;100.00;96530.72;5000793;28;20569;-86
2022/12/14 09:25:11;;;;;;;8.47;5.63;;;-2.10;99.90;;;-1.52;100.00;96529.75;5001128;28;20470;-86
2022/12/14 09:27:41;;;;;;;9.00;6.13;;;-2.00;99.90;;;-1.57;100.00;96537.13;4999161;28;20465;-86
2022/12/14 09:30:14;;;;;;;9.40;5.70;;;-2.10;99.90;;;-1.61;100.00;96540.91;5001689;28;20467;-86
2022/12/14 09:32:48;;;;;;;12.70;7.00;;;-2.10;99.90;;;-1.55;100.00;96544.63;5001617;28;20544;-86
2022/12/14 09:35:19;;;;;;;17.30;6.43;;;-2.10;99.90;;;-1.53;100.00;96538.41;5001405;28;20890;-86
2022/12/14 09:37:50;;;;;;;8.50;5.90;;;-2.10;99.90;;;-1.47;100.00;96536.19;5000791;28;20517;-86
2022/12/14 09:40:24;;;;;;;10.23;6.10;;;-2.10;99.90;;;-1.50;100.00;96533.94;4998092;28;20552;-86
2022/12/14 09:43:04;;;;;;;10.70;5.80;;;-2.10;99.90;;;-1.47;100.00;96531.06;5002805;28;20501;-86
2022/12/14 09:45:47;;;;;;;11.30;5.17;;;-2.10;99.90;;;-1.44;100.00;96523.09;5001898;28;20976;-86
2022/12/14 09:48:24;;;;;;;6.30;4.80;;;-2.00;99.90;;;-1.44;100.00;96520.53;5001981;28;20471;-85
2022/12/14 09:50:54;;;;;;;9.63;6.23;;;-2.00;99.90;;;-1.41;100.00;96527.91;5001150;28;20466;-86
2022/12/14 09:53:26;;;;;;;11.10;5.97;;;-2.00;99.90;;;-1.44;100.00;96521.34;5001120;28;20489;-87
2022/12/14 09:55:58;;;;;;;10.77;6.60;;;-2.00;99.90;;;-1.40;100.00;96511.59;5002671;28;21016;-87
2022/12/14 09:58:31;;;;;;;10.40;6.20;;;-1.90;99.90;;;-1.42;100.00;96514.28;5001114;28;20471;-87
2022/12/14 10:01:32;;;;;;;20.47;5.93;;;-1.90;99.90;;;-1.45;100.00;96514.59;5002947;28;20490;-85
2022/12/14 10:04:16;;;;;;;11.03;6.23;;;-1.90;99.90;;;-1.41;100.00;96520.22;5002803;28;20519;-85
2022/12/14 10:06:55;;;;;;;10.30;5.53;;;-1.90;99.90;;;-1.41;100.00;96522.78;5001781;28;21096;-86
2022/12/14 10:09:36;;;;;;;13.33;5.90;;;-1.90;99.90;;;-1.39;100.00;96515.75;5003591;28;20455;-86
2022/12/14 10:12:23;;;;;;;10.00;5.80;;;-1.90;99.90;;;-1.38;100.00;96514.78;5001981;28;20466;-86
2022/12/14 10:15:18;;;;;;;9.30;6.00;;;-1.80;99.90;;;-1.36;100.00;96525.72;5003590;28;20488;-86
2022/12/14 10:18:17;;;;;;;8.53;6.10;;;-1.90;99.90;;;-1.34;100.00;96519.47;5003578;28;20482;-86
2022/12/14 10:21:13;;;;;;;7.90;5.77;;;-1.90;99.90;;;-1.33;100.00;96533.09;5001870;28;20946;-86
2022/12/14 10:23:52;;;;;;;14.50;5.90;;;-1.90;99.90;;;-1.32;100.00;96524.47;5003361;28;20467;-85
2022/12/14 10:26:29;;;;;;;10.27;6.70;;;-1.80;99.90;;;-1.28;100.00;96525.75;5003016;28;20456;-86
2022/12/14 10:29:05;;;;;;;11.77;5.93;;;-1.90;99.90;;;-1.27;100.00;96520.47;5000711;28;20510;-84
2022/12/14 10:31:41;;;;;;;9.07;5.90;;;-1.80;99.90;;;-1.25;100.00;96521.13;4999224;28;20470;-86
2022/12/14 10:34:21;;;;;;;9.40;5.90;;;-1.80;99.90;;;-1.23;100.00;96518.41;4999831;28;20555;-86
2022/12/14 10:37:12;;;;;;;9.80;6.10;;;-1.80;99.90;;;-1.22;100.00;96520.84;5001950;28;20498;-86
2022/12/14 10:39:53;;;;;;;10.13;5.80;;;-1.80;99.90;;;-1.21;100.00;96534.44;5000057;28;20498;-86
2022/12/14 10:42:31;;;;;;;7.60;5.30;;;-1.70;99.90;;;-1.22;100.00;96523.41;5003087;28;20887;-87
2022/12/14 10:45:18;;;;;;;9.10;6.10;;;-1.80;99.90;;;-1.19;100.00;96520.53;5002633;28;20466;-86
2022/12/14 10:48:30;;;;;;;9.87;6.30;;;-1.80;99.90;;;-1.20;100.00;96520.66;5002135;28;20833;-86
2022/12/14 10:51:07;;;;;;;7.83;5.90;;;-1.80;99.90;;;-1.20;100.00;96518.09;5004056;28;20466;-87
2022/12/14 10:53:47;;;;;;;10.10;6.20;;;-1.80;99.90;;;-1.20;100.00;96518.09;4999533;28;20894;-86